createdAt,value
2022-09-16T00:01:30.635Z,99005.41
2022-09-16T00:03:58.831Z,99012.13
2022-09-16T00:06:28.943Z,99020.16
2022-09-16T00:09:00.977Z,99023.53
2022-09-16T00:11:33.719Z,99026.50
2022-09-16T00:14:02.347Z,99020.16
2022-09-16T00:16:30.634Z,99013.41
2022-09-16T00:19:00.839Z,99013.75
2022-09-16T00:21:29.854Z,99015.88
2022-09-16T00:23:58.379Z,99015.59
2022-09-16T00:26:26.152Z,99006.66
2022-09-16T00:28:53.826Z,99004.09
2022-09-16T00:31:21.593Z,99014.75
2022-09-16T00:33:49.383Z,99015.50
2022-09-16T00:36:19.967Z,99010.00
2022-09-16T00:38:52.866Z,99015.78
2022-09-16T00:41:25.530Z,99010.63
2022-09-16T00:44:01.298Z,99018.50
2022-09-16T00:46:49.641Z,99014.38
2022-09-16T00:49:31.105Z,99013.56
2022-09-16T00:52:02.731Z,99018.22
2022-09-16T00:54:32.052Z,99011.53
2022-09-16T00:57:01.814Z,99009.69
2022-09-16T00:59:36.534Z,99013.06
2022-09-16T01:02:08.375Z,99023.91
2022-09-16T01:04:48.259Z,99018.91
2022-09-16T01:07:17.330Z,99023.97
2022-09-16T01:09:45.098Z,99012.91
2022-09-16T01:12:12.783Z,99007.69
2022-09-16T01:14:56.698Z,99013.09
2022-09-16T01:17:32.968Z,99014.09
2022-09-16T01:20:54.572Z,99022.72
2022-09-16T01:23:34.344Z,99021.63
2022-09-16T01:26:20.401Z,99023.22
2022-09-16T01:29:15.214Z,99011.31
2022-09-16T01:31:53.066Z,99012.38
2022-09-16T01:34:42.416Z,99018.97
2022-09-16T01:37:25.149Z,99013.56
2022-09-16T01:40:16.301Z,99016.88
2022-09-16T01:42:58.035Z,99017.22
2022-09-16T01:45:56.841Z,99017.56
2022-09-16T01:48:28.263Z,99017.09
2022-09-16T01:51:48.232Z,99019.81
2022-09-16T01:54:26.335Z,99025.22
2022-09-16T01:57:01.667Z,99022.19
2022-09-16T01:59:42.448Z,99034.53
2022-09-16T02:02:35.922Z,99023.97
2022-09-16T02:05:09.223Z,99024.41
2022-09-16T02:07:42.610Z,99033.00
2022-09-16T02:10:23.173Z,99025.56
2022-09-16T02:12:54.488Z,99035.34
2022-09-16T02:15:26.515Z,99037.06
2022-09-16T02:18:04.466Z,99044.03
2022-09-16T02:20:36.962Z,99035.72
2022-09-16T02:23:22.287Z,99027.91
2022-09-16T02:25:52.809Z,99042.91
2022-09-16T02:28:27.205Z,99042.81
2022-09-16T02:31:00.096Z,99037.84
2022-09-16T02:33:44.980Z,99047.28
2022-09-16T02:36:17.642Z,99050.84
2022-09-16T02:38:50.570Z,99050.66
2022-09-16T02:41:18.557Z,99040.38
2022-09-16T02:43:46.782Z,99045.44
2022-09-16T02:46:26.228Z,99046.38
2022-09-16T02:49:18.296Z,99037.19
2022-09-16T02:52:10.635Z,99038.88
2022-09-16T02:55:13.588Z,99044.50
2022-09-16T02:57:41.792Z,99046.75
2022-09-16T03:00:10.343Z,99038.78
2022-09-16T03:02:38.159Z,99034.75
2022-09-16T03:05:06.294Z,99041.88
2022-09-16T03:07:34.651Z,99042.25
2022-09-16T03:10:03.254Z,99024.81
2022-09-16T03:12:49.720Z,99028.19
2022-09-16T03:15:44.366Z,99031.38
2022-09-16T03:18:35.240Z,99033.25
2022-09-16T03:21:17.494Z,99033.59
2022-09-16T03:23:57.415Z,99032.16
2022-09-16T03:26:49.566Z,99036.00
2022-09-16T03:29:18.078Z,99041.47
2022-09-16T03:32:15.412Z,99042.09
2022-09-16T03:34:49.829Z,99049.97
2022-09-16T03:37:21.608Z,99042.59
2022-09-16T03:39:55.658Z,99045.13
2022-09-16T03:42:23.627Z,99046.44
2022-09-16T03:44:51.287Z,99057.41
2022-09-16T03:47:19.226Z,99055.53
2022-09-16T03:49:46.958Z,99057.13
2022-09-16T03:52:14.703Z,99061.00
2022-09-16T03:54:42.377Z,99058.84
2022-09-16T03:57:10.454Z,99059.66
2022-09-16T03:59:38.076Z,99055.09
2022-09-16T04:02:05.951Z,99064.50
2022-09-16T04:04:34.034Z,99067.13
2022-09-16T04:07:01.575Z,99062.41
2022-09-16T04:09:29.184Z,99061.94
2022-09-16T04:11:57.044Z,99065.16
2022-09-16T04:14:24.718Z,99076.97
2022-09-16T04:16:52.307Z,99074.13
2022-09-16T04:19:20.190Z,99070.94
2022-09-16T04:21:47.883Z,99078.66
2022-09-16T04:24:15.417Z,99073.97
2022-09-16T04:26:43.803Z,99068.72
2022-09-16T04:29:11.737Z,99068.81
2022-09-16T04:31:39.513Z,99074.53
2022-09-16T04:34:07.396Z,99073.44
2022-09-16T04:36:35.588Z,99066.09
2022-09-16T04:39:03.651Z,99069.53
2022-09-16T04:41:31.697Z,99073.06
2022-09-16T04:44:00.450Z,99081.47
2022-09-16T04:46:30.773Z,99079.63
2022-09-16T04:49:00.081Z,99079.91
2022-09-16T04:51:28.713Z,99090.28
2022-09-16T04:53:57.509Z,99090.63
2022-09-16T04:56:27.825Z,99086.22
2022-09-16T04:58:59.565Z,99088.09
2022-09-16T05:01:31.284Z,99086.22
2022-09-16T05:04:01.780Z,99090.56
2022-09-16T05:06:32.491Z,99082.72
2022-09-16T05:09:01.105Z,99089.25
2022-09-16T05:11:36.968Z,99090.78
2022-09-16T05:14:08.709Z,99077.75
2022-09-16T05:16:36.380Z,99083.47
2022-09-16T05:19:04.974Z,99082.78
2022-09-16T05:21:36.224Z,99083.47
2022-09-16T05:24:08.577Z,99090.50
2022-09-16T05:26:39.035Z,99096.69
2022-09-16T05:29:14.451Z,99090.47
2022-09-16T05:31:44.329Z,99091.09
2022-09-16T05:34:28.509Z,99101.31
2022-09-16T05:36:56.544Z,99099.84
2022-09-16T05:39:25.481Z,99106.31
2022-09-16T05:41:59.931Z,99104.69
2022-09-16T05:44:29.274Z,99106.66
2022-09-16T05:46:57.335Z,99101.22
2022-09-16T05:49:25.722Z,99106.53
2022-09-16T05:51:55.132Z,99102.66
2022-09-16T05:54:25.080Z,99097.19
2022-09-16T05:56:52.836Z,99102.59
2022-09-16T05:59:22.607Z,99099.75
2022-09-16T06:01:50.461Z,99098.47
2022-09-16T06:04:18.223Z,99107.94
2022-09-16T06:06:47.160Z,99101.25
2022-09-16T06:09:21.061Z,99101.91
2022-09-16T06:11:50.244Z,99101.03
2022-09-16T06:14:19.509Z,99089.13
2022-09-16T06:16:48.961Z,99093.38
2022-09-16T06:19:18.653Z,99094.50
2022-09-16T06:21:47.523Z,99095.75
2022-09-16T06:24:17.110Z,99098.06
2022-09-16T06:26:46.940Z,99095.34
2022-09-16T06:29:16.708Z,99094.41
2022-09-16T06:31:44.580Z,99100.63
2022-09-16T06:34:18.673Z,99104.78
2022-09-16T06:36:47.245Z,99104.03
2022-09-16T06:39:17.117Z,99114.00
2022-09-16T06:41:49.134Z,99103.41
2022-09-16T06:44:17.081Z,99097.56
2022-09-16T06:46:44.835Z,99107.59
2022-09-16T06:49:13.114Z,99105.81
2022-09-16T06:51:41.656Z,99106.09
2022-09-16T06:54:10.931Z,99101.97
2022-09-16T06:56:41.251Z,99104.25
2022-09-16T06:59:10.405Z,99112.22
2022-09-16T07:01:38.489Z,99112.66
2022-09-16T07:04:11.053Z,99113.91
2022-09-16T07:09:27.270Z,99121.34
2022-09-16T07:11:55.371Z,99116.06
2022-09-16T07:14:23.281Z,99112.75
2022-09-16T07:16:51.241Z,99110.22
2022-09-16T07:19:19.491Z,99114.47
2022-09-16T07:21:47.228Z,99117.28
2022-09-16T07:24:15.260Z,99116.41
2022-09-16T07:26:44.227Z,99114.69
2022-09-16T07:29:15.017Z,99116.63
2022-09-16T07:31:43.134Z,99118.81
2022-09-16T07:34:12.594Z,99118.66
2022-09-16T07:36:41.838Z,99130.13
2022-09-16T07:39:10.504Z,99125.72
2022-09-16T07:41:41.249Z,99132.41
2022-09-16T07:44:15.275Z,99134.66
2022-09-16T07:46:43.746Z,99128.75
2022-09-16T07:49:14.342Z,99126.28
2022-09-16T07:51:42.571Z,99138.66
2022-09-16T07:54:13.719Z,99118.53
2022-09-16T07:56:42.954Z,99136.22
2022-09-16T07:59:17.665Z,99139.69
2022-09-16T08:01:47.866Z,99142.75
2022-09-16T08:04:17.261Z,99143.09
2022-09-16T08:06:45.176Z,99158.16
2022-09-16T08:09:38.570Z,99147.13
2022-09-16T08:12:03.567Z,99145.69
2022-09-16T08:14:31.380Z,99146.09
2022-09-16T08:16:59.061Z,99142.53
2022-09-16T08:19:26.951Z,99137.97
2022-09-16T08:21:54.586Z,99136.53
2022-09-16T08:24:22.401Z,99136.00
2022-09-16T08:26:50.298Z,99143.31
2022-09-16T08:29:18.520Z,99133.50
2022-09-16T08:31:46.470Z,99147.13
2022-09-16T08:34:15.988Z,99143.84
2022-09-16T08:36:44.038Z,99152.41
2022-09-16T08:39:12.153Z,99147.94
2022-09-16T08:42:30.415Z,99144.19
2022-09-16T08:45:31.713Z,99136.22
2022-09-16T08:48:34.877Z,99139.69
2022-09-16T08:51:04.243Z,99144.34
2022-09-16T08:53:38.445Z,99131.75
2022-09-16T08:56:10.591Z,99143.88
2022-09-16T08:58:48.787Z,99146.34
2022-09-16T09:01:34.980Z,99151.31
2022-09-16T09:04:03.976Z,99141.25
2022-09-16T09:06:51.108Z,99143.06
2022-09-16T09:09:37.322Z,99144.03
2022-09-16T09:12:26.737Z,99142.69
2022-09-16T09:15:16.892Z,99145.69
2022-09-16T09:18:02.814Z,99146.53
2022-09-16T09:21:05.958Z,99141.25
2022-09-16T09:24:07.615Z,99146.97
2022-09-16T09:27:12.248Z,99142.69
2022-09-16T09:29:50.392Z,99141.00
2022-09-16T09:32:49.388Z,99145.19
2022-09-16T09:35:25.016Z,99150.59
2022-09-16T09:38:14.892Z,99149.03
2022-09-16T09:40:56.750Z,99136.41
2022-09-16T09:43:34.227Z,99148.97
2022-09-16T09:46:13.425Z,99143.28
2022-09-16T09:48:48.151Z,99149.13
2022-09-16T09:51:38.034Z,99150.44
2022-09-16T09:54:29.755Z,99144.53
2022-09-16T09:57:03.669Z,99170.16
2022-09-16T09:59:42.738Z,99141.25
2022-09-16T10:02:22.658Z,99148.66
2022-09-16T10:04:51.062Z,99150.44
2022-09-16T10:07:23.465Z,99150.28
2022-09-16T10:10:01.488Z,99149.31
2022-09-16T10:12:32.102Z,99141.34
2022-09-16T10:15:00.505Z,99148.69
2022-09-16T10:17:37.350Z,99143.63
2022-09-16T10:20:23.916Z,99135.78
2022-09-16T10:23:07.048Z,99133.19
2022-09-16T10:25:35.535Z,99125.78
2022-09-16T10:28:06.324Z,99140.81
2022-09-16T10:30:54.362Z,99135.41
2022-09-16T10:33:30.502Z,99134.94
2022-09-16T10:36:02.537Z,99133.13
2022-09-16T10:38:47.138Z,99133.19
2022-09-16T10:41:24.024Z,99135.75
2022-09-16T10:44:02.476Z,99147.00
2022-09-16T10:46:31.217Z,99149.19
2022-09-16T10:49:10.810Z,99147.66
2022-09-16T10:51:38.694Z,99149.78
2022-09-16T10:54:07.132Z,99136.91
2022-09-16T10:56:48.140Z,99126.03
2022-09-16T10:59:16.361Z,99136.09
2022-09-16T11:02:29.074Z,99128.69
2022-09-16T11:05:21.629Z,99128.69
2022-09-16T11:08:00.569Z,99132.09
2022-09-16T11:10:42.455Z,99134.66
2022-09-16T11:13:25.201Z,99141.38
2022-09-16T11:16:23.853Z,99149.50
2022-09-16T11:19:26.345Z,99147.53
2022-09-16T11:22:21.306Z,99129.66
2022-09-16T11:24:49.300Z,99127.44
2022-09-16T11:27:31.090Z,99132.72
2022-09-16T11:30:15.037Z,99111.00
2022-09-16T11:33:04.676Z,99123.13
2022-09-16T11:36:29.263Z,99113.16
2022-09-16T11:39:17.112Z,99104.38
2022-09-16T11:42:00.084Z,99099.91
2022-09-16T11:44:52.723Z,99102.81
2022-09-16T11:47:40.829Z,99104.66
2022-09-16T11:50:46.216Z,99109.25
2022-09-16T11:53:29.429Z,99102.56
2022-09-16T11:56:26.195Z,99096.69
2022-09-16T11:58:58.033Z,99097.69
2022-09-16T12:01:50.211Z,99109.25
2022-09-16T12:04:33.699Z,99096.94
2022-09-16T12:07:25.819Z,99104.78
2022-09-16T12:10:05.699Z,99108.47
2022-09-16T12:12:38.904Z,99111.53
2022-09-16T12:15:21.354Z,99107.31
2022-09-16T12:18:08.513Z,99116.09
2022-09-16T12:20:41.800Z,99120.44
2022-09-16T12:23:22.498Z,99116.19
2022-09-16T12:25:59.392Z,99116.66
2022-09-16T12:28:33.828Z,99112.78
2022-09-16T12:31:23.066Z,99116.91
2022-09-16T12:34:03.790Z,99108.25
2022-09-16T12:36:35.772Z,99098.81
2022-09-16T12:39:03.948Z,99112.09
2022-09-16T12:42:09.986Z,99105.84
2022-09-16T12:45:08.072Z,99105.38
2022-09-16T12:48:05.587Z,99103.09
2022-09-16T12:51:01.732Z,99094.94
2022-09-16T12:53:54.507Z,99089.94
2022-09-16T12:56:59.817Z,99086.03
2022-09-16T12:59:27.455Z,99085.13
2022-09-16T13:02:04.650Z,99084.16
2022-09-16T13:04:38.893Z,99078.63
2022-09-16T13:07:07.629Z,99075.59
2022-09-16T13:09:40.795Z,99073.72
2022-09-16T13:12:44.831Z,99075.72
2022-09-16T13:15:29.391Z,99073.72
2022-09-16T13:18:09.043Z,99073.72
2022-09-16T13:20:47.869Z,99072.38
2022-09-16T13:23:32.962Z,99072.94
2022-09-16T13:26:09.542Z,99079.13
2022-09-16T13:28:40.780Z,99079.38
2022-09-16T13:31:11.301Z,99073.59
2022-09-16T13:33:44.024Z,99071.00
2022-09-16T13:36:18.564Z,99066.84
2022-09-16T13:38:59.232Z,99078.28
2022-09-16T13:41:35.016Z,99068.66
2022-09-16T13:44:23.733Z,99071.41
2022-09-16T13:46:51.435Z,99073.78
2022-09-16T13:49:21.615Z,99078.16
2022-09-16T13:51:50.946Z,99069.72
2022-09-16T13:54:22.738Z,99066.41
2022-09-16T13:57:12.521Z,99070.78
2022-09-16T14:03:02.925Z,99061.66
2022-09-16T14:05:51.967Z,99069.03
2022-09-16T14:08:44.010Z,99061.38
2022-09-16T14:11:24.006Z,99062.22
2022-09-16T14:14:05.127Z,99058.78
2022-09-16T14:16:35.406Z,99060.72
2022-09-16T14:19:16.789Z,99060.69
2022-09-16T14:21:44.523Z,99059.53
2022-09-16T14:24:20.365Z,99063.75
2022-09-16T14:26:52.832Z,99060.72
2022-09-16T14:29:21.864Z,99050.56
2022-09-16T14:31:52.675Z,99063.19
2022-09-16T14:34:29.905Z,99048.28
2022-09-16T14:36:58.113Z,99033.81
2022-09-16T14:39:28.200Z,99047.69
2022-09-16T14:41:59.230Z,99042.53
2022-09-16T14:44:32.018Z,99043.13
2022-09-16T14:47:08.859Z,99049.75
2022-09-16T14:49:41.779Z,99048.53
2022-09-16T14:52:23.134Z,99042.03
2022-09-16T14:54:51.958Z,99034.59
2022-09-16T14:57:25.116Z,99032.47
2022-09-16T14:59:58.762Z,99037.72
2022-09-16T15:02:56.037Z,99038.44
2022-09-16T15:05:39.787Z,99025.88
2022-09-16T15:08:17.004Z,99032.75
2022-09-16T15:10:56.059Z,99035.53
2022-09-16T15:13:44.624Z,99030.09
2022-09-16T15:16:22.732Z,99038.88
2022-09-16T15:18:54.611Z,99031.84
2022-09-16T15:21:29.940Z,99035.75
2022-09-16T15:24:01.111Z,99046.44
2022-09-16T15:26:42.180Z,99037.22
2022-09-16T15:29:19.299Z,99043.44
2022-09-16T15:31:50.352Z,99041.31
2022-09-16T15:34:20.940Z,99044.28
2022-09-16T15:36:52.032Z,99031.94
2022-09-16T15:39:36.059Z,99045.88
2022-09-16T15:42:20.470Z,99049.47
2022-09-16T15:44:57.864Z,99042.97
2022-09-16T15:47:36.058Z,99030.69
2022-09-16T15:50:18.025Z,99040.34
2022-09-16T15:52:55.762Z,99035.75
2022-09-16T15:55:53.146Z,99032.16
2022-09-16T15:58:24.340Z,99027.47
2022-09-16T16:00:57.793Z,99035.28
2022-09-16T16:03:26.831Z,99038.78
2022-09-16T16:05:55.231Z,99028.56
2022-09-16T16:08:48.274Z,99026.28
2022-09-16T16:11:19.218Z,99022.34
2022-09-16T16:13:47.490Z,99027.09
2022-09-16T16:16:16.707Z,99027.84
2022-09-16T16:18:46.318Z,99028.88
2022-09-16T16:21:17.542Z,99029.66
2022-09-16T16:23:45.513Z,99033.84
2022-09-16T16:26:13.378Z,99039.19
2022-09-16T16:28:41.057Z,99044.75
2022-09-16T16:31:17.801Z,99046.53
2022-09-16T16:33:47.545Z,99049.53
2022-09-16T16:36:18.378Z,99047.63
2022-09-16T16:38:46.371Z,99040.19
2022-09-16T16:41:20.902Z,99046.69
2022-09-16T16:43:49.851Z,99047.53
2022-09-16T16:46:19.350Z,99050.41
2022-09-16T16:48:47.493Z,99048.38
2022-09-16T16:51:15.450Z,99047.78
2022-09-16T16:53:47.196Z,99045.91
2022-09-16T16:56:15.734Z,99050.75
2022-09-16T16:58:43.714Z,99054.50
2022-09-16T17:01:16.782Z,99058.09
2022-09-16T17:03:46.290Z,99060.59
2022-09-16T17:06:14.516Z,99060.38
2022-09-16T17:08:42.358Z,99059.50
2022-09-16T17:11:11.011Z,99057.72
2022-09-16T17:13:45.328Z,99060.56
2022-09-16T17:16:15.335Z,99069.97
2022-09-16T17:18:43.723Z,99058.34
2022-09-16T17:21:14.454Z,99067.44
2022-09-16T17:23:42.531Z,99065.53
2022-09-16T17:26:11.289Z,99072.25
2022-09-16T17:28:40.946Z,99072.28
2022-09-16T17:31:27.778Z,99072.53
2022-09-16T17:34:07.207Z,99070.75
2022-09-16T17:36:37.435Z,99078.16
2022-09-16T17:39:11.529Z,99069.19
2022-09-16T17:41:39.226Z,99069.47
2022-09-16T17:44:08.125Z,99067.50
2022-09-16T17:46:35.950Z,99065.06
2022-09-16T17:49:07.680Z,99063.09
2022-09-16T17:51:35.976Z,99062.66
2022-09-16T17:54:04.027Z,99052.34
2022-09-16T17:56:31.599Z,99059.28
2022-09-16T17:59:00.279Z,99056.84
2022-09-16T18:01:28.259Z,99057.78
2022-09-16T18:03:56.621Z,99057.03
2022-09-16T18:06:35.504Z,99054.59
2022-09-16T18:09:07.175Z,99058.34
2022-09-16T18:11:36.209Z,99060.59
2022-09-16T18:14:06.044Z,99060.22
2022-09-16T18:16:33.909Z,99058.25
2022-09-16T18:19:02.737Z,99060.22
2022-09-16T18:21:32.492Z,99053.47
2022-09-16T18:24:02.901Z,99056.09
2022-09-16T18:26:32.122Z,99060.22
2022-09-16T18:29:11.371Z,99059.47
2022-09-16T18:31:43.808Z,99056.94
2022-09-16T18:34:12.844Z,99056.28
2022-09-16T18:36:41.851Z,99066.59
2022-09-16T18:39:17.213Z,99069.97
2022-09-16T18:41:46.794Z,99058.19
2022-09-16T18:44:19.986Z,99060.06
2022-09-16T18:46:48.228Z,99058.66
2022-09-16T18:49:17.510Z,99062.19
2022-09-16T18:51:51.319Z,99061.34
2022-09-16T18:54:29.113Z,99062.75
2022-09-16T18:57:01.887Z,99065.47
2022-09-16T18:59:32.024Z,99063.03
2022-09-16T19:02:03.391Z,99067.97
2022-09-16T19:04:38.043Z,99062.81
2022-09-16T19:07:08.663Z,99066.69
2022-09-16T19:09:39.680Z,99063.97
2022-09-16T19:12:10.925Z,99064.81
2022-09-16T19:14:40.123Z,99060.69
2022-09-16T19:17:08.365Z,99061.63
2022-09-16T19:19:36.180Z,99065.75
2022-09-16T19:22:05.856Z,99063.31
2022-09-16T19:24:35.104Z,99065.53
2022-09-16T19:27:02.931Z,99068.53
2022-09-16T19:29:32.593Z,99073.91
2022-09-16T19:32:00.580Z,99080.41
2022-09-16T19:34:28.461Z,99077.63
2022-09-16T19:36:56.861Z,99072.25
2022-09-16T19:39:26.922Z,99072.88
2022-09-16T19:41:54.659Z,99080.63
2022-09-16T19:44:22.499Z,99080.03
2022-09-16T19:46:50.734Z,99073.03
2022-09-16T19:49:21.052Z,99065.28
2022-09-16T19:51:50.173Z,99068.84
2022-09-16T19:54:18.343Z,99065.38
2022-09-16T19:56:50.613Z,99066.72
2022-09-16T19:59:19.672Z,99063.19
2022-09-16T20:01:48.112Z,99063.59
2022-09-16T20:04:19.786Z,99069.75
2022-09-16T20:06:48.229Z,99068.66
2022-09-16T20:09:16.943Z,99062.41
2022-09-16T20:11:46.572Z,99072.84
2022-09-16T20:14:21.511Z,99075.38
2022-09-16T20:16:50.933Z,99080.00
2022-09-16T20:19:20.852Z,99077.56
2022-09-16T20:21:48.915Z,99084.78
2022-09-16T20:24:19.368Z,99076.63
2022-09-16T20:26:50.618Z,99075.78
2022-09-16T20:29:19.831Z,99078.47
2022-09-16T20:31:50.115Z,99076.63
2022-09-16T20:34:18.182Z,99082.50
2022-09-16T20:36:46.325Z,99083.44
2022-09-16T20:39:15.261Z,99090.06
2022-09-16T20:41:45.742Z,99091.91
2022-09-16T20:44:15.776Z,99095.59
2022-09-16T20:46:44.020Z,99092.75
2022-09-16T20:49:15.920Z,99100.81
2022-09-16T20:51:44.396Z,99095.88
2022-09-16T20:54:14.312Z,99102.97
2022-09-16T20:56:44.555Z,99101.56
2022-09-16T20:59:14.374Z,99106.16
2022-09-16T21:01:42.871Z,99116.84
2022-09-16T21:04:15.983Z,99107.88
2022-09-16T21:06:45.497Z,99103.72
2022-09-16T21:09:16.253Z,99109.63
2022-09-16T21:11:44.897Z,99104.47
2022-09-16T21:14:16.245Z,99102.34
2022-09-16T21:16:46.917Z,99104.34
2022-09-16T21:19:16.664Z,99099.56
2022-09-16T21:21:47.797Z,99095.97
2022-09-16T21:24:16.845Z,99102.94
2022-09-16T21:26:45.411Z,99103.88
2022-09-16T21:29:15.574Z,99105.06
2022-09-16T21:31:44.052Z,99097.91
2022-09-16T21:34:21.036Z,99097.28
2022-09-16T21:36:50.349Z,99096.66
2022-09-16T21:39:20.466Z,99098.66
2022-09-16T21:41:48.914Z,99101.28
2022-09-16T21:44:17.823Z,99105.66
2022-09-16T21:46:46.693Z,99109.78
2022-09-16T21:49:25.512Z,99110.25
2022-09-16T21:51:58.021Z,99108.56
2022-09-16T21:54:26.708Z,99113.88
2022-09-16T21:56:54.824Z,99110.97
2022-09-16T21:59:23.629Z,99116.63
2022-09-16T22:01:52.537Z,99107.03
2022-09-16T22:04:23.200Z,99109.13
2022-09-16T22:06:54.744Z,99108.94
2022-09-16T22:09:23.502Z,99103.53
2022-09-16T22:11:52.073Z,99105.44
2022-09-16T22:14:19.761Z,99103.69
2022-09-16T22:16:48.050Z,99105.38
2022-09-16T22:19:19.211Z,99101.75
2022-09-16T22:21:49.840Z,99103.75
2022-09-16T22:24:20.476Z,99105.66
2022-09-16T22:26:50.700Z,99095.63
2022-09-16T22:29:18.833Z,99105.22
2022-09-16T22:31:47.108Z,99103.69
2022-09-16T22:34:15.063Z,99098.69
2022-09-16T22:36:42.855Z,99103.75
2022-09-16T22:39:19.533Z,99099.81
2022-09-16T22:41:47.738Z,99106.41
2022-09-16T22:44:15.788Z,99108.09
2022-09-16T22:46:46.317Z,99102.31
2022-09-16T22:49:15.281Z,99098.44
2022-09-16T22:51:43.304Z,99107.03
2022-09-16T22:54:13.171Z,99103.31
2022-09-16T22:56:41.653Z,99097.66
2022-09-16T22:59:20.608Z,99098.50
2022-09-16T23:01:49.186Z,99102.31
2022-09-16T23:04:18.580Z,99093.72
2022-09-16T23:06:47.300Z,99093.59
2022-09-16T23:09:15.358Z,99093.44
2022-09-16T23:11:43.228Z,99091.88
2022-09-16T23:14:15.675Z,99092.94
2022-09-16T23:16:43.460Z,99090.34
2022-09-16T23:19:12.107Z,99082.72
2022-09-16T23:21:40.893Z,99088.03
2022-09-16T23:24:13.359Z,99087.53
2022-09-16T23:26:41.484Z,99078.88
2022-09-16T23:29:11.945Z,99080.91
2022-09-16T23:31:43.186Z,99081.31
2022-09-16T23:34:21.694Z,99073.78
2022-09-16T23:36:50.499Z,99071.03
2022-09-16T23:39:19.418Z,99072.72
2022-09-16T23:41:49.438Z,99069.06
2022-09-16T23:44:17.575Z,99076.88
2022-09-16T23:46:45.732Z,99086.81
2022-09-16T23:49:13.702Z,99085.81
2022-09-16T23:51:41.216Z,99076.38
2022-09-16T23:54:09.025Z,99071.41
2022-09-16T23:56:36.963Z,99080.63
2022-09-16T23:59:04.851Z,99090.56
